createdAt,value
2019-04-13T00:00:56.036Z,99.90
2019-04-13T00:03:25.235Z,99.90
2019-04-13T00:06:03.803Z,99.90
2019-04-13T00:08:35.041Z,99.90
2019-04-13T00:11:30.178Z,99.90
2019-04-13T00:13:59.121Z,99.90
2019-04-13T00:16:28.147Z,99.90
2019-04-13T00:18:57.066Z,99.90
2019-04-13T00:21:26.202Z,99.90
2019-04-13T00:23:55.134Z,99.90
2019-04-13T00:26:24.127Z,99.90
2019-04-13T00:28:53.123Z,99.90
2019-04-13T00:31:22.090Z,99.90
2019-04-13T00:33:51.106Z,99.90
2019-04-13T00:36:20.057Z,99.90
2019-04-13T00:38:49.040Z,99.90
2019-04-13T00:41:18.037Z,99.90
2019-04-13T00:43:47.590Z,99.90
2019-04-13T00:46:16.809Z,99.90
2019-04-13T00:48:46.175Z,99.90
2019-04-13T00:51:15.266Z,99.90
2019-04-13T00:53:44.123Z,99.90
2019-04-13T00:56:13.039Z,99.90
2019-04-13T00:58:42.038Z,99.90
2019-04-13T01:01:10.882Z,99.90
2019-04-13T01:03:39.824Z,99.90
2019-04-13T01:06:09.179Z,99.90
2019-04-13T01:08:38.481Z,99.90
2019-04-13T01:11:07.846Z,99.90
2019-04-13T01:13:36.926Z,99.90
2019-04-13T01:16:06.262Z,99.90
2019-04-13T01:18:35.583Z,99.90
2019-04-13T01:21:04.749Z,99.90
2019-04-13T01:23:33.835Z,99.90
2019-04-13T01:26:03.400Z,99.90
2019-04-13T01:28:32.401Z,99.90
2019-04-13T01:31:01.331Z,99.90
2019-04-13T01:33:30.350Z,99.90
2019-04-13T01:35:59.613Z,99.90
2019-04-13T01:38:28.592Z,99.90
2019-04-13T01:40:57.581Z,99.90
2019-04-13T01:43:26.875Z,99.90
2019-04-13T01:45:55.803Z,99.90
2019-04-13T01:48:24.759Z,99.90
2019-04-13T01:50:53.686Z,99.90
2019-04-13T01:53:22.628Z,99.90
2019-04-13T01:55:51.823Z,99.90
2019-04-13T01:58:20.986Z,99.90
2019-04-13T02:01:15.053Z,99.90
2019-04-13T02:03:50.129Z,99.90
2019-04-13T02:06:19.043Z,99.90
2019-04-13T02:08:56.996Z,99.90
2019-04-13T02:11:29.609Z,99.90
2019-04-13T02:13:58.610Z,99.90
2019-04-13T02:16:27.672Z,99.90
2019-04-13T02:18:56.659Z,99.90
2019-04-13T02:21:25.616Z,99.90
2019-04-13T02:23:55.348Z,99.90
2019-04-13T02:26:24.339Z,99.90
2019-04-13T02:28:53.359Z,99.90
2019-04-13T02:31:22.359Z,99.90
2019-04-13T02:33:51.335Z,99.90
2019-04-13T02:36:20.400Z,99.90
2019-04-13T02:38:49.338Z,99.90
2019-04-13T02:41:18.330Z,99.90
2019-04-13T02:43:47.323Z,99.90
2019-04-13T02:46:16.699Z,99.90
2019-04-13T02:48:45.818Z,99.90
2019-04-13T02:51:14.743Z,99.90
2019-04-13T02:53:43.733Z,99.90
2019-04-13T02:56:12.787Z,99.90
2019-04-13T02:58:41.795Z,99.90
2019-04-13T03:01:10.728Z,99.90
2019-04-13T03:03:39.649Z,99.90
2019-04-13T03:06:08.663Z,99.90
2019-04-13T03:08:37.731Z,99.90
2019-04-13T03:11:07.157Z,99.90
2019-04-13T03:13:36.467Z,99.90
2019-04-13T03:16:37.607Z,99.90
2019-04-13T03:19:14.514Z,99.90
2019-04-13T03:21:43.575Z,99.90
2019-04-13T03:24:12.771Z,99.90
2019-04-13T03:26:42.090Z,99.90
2019-04-13T03:29:11.089Z,99.90
2019-04-13T03:31:40.094Z,99.90
2019-04-13T03:34:09.090Z,99.90
2019-04-13T03:36:37.955Z,99.90
2019-04-13T03:39:08.255Z,99.90
2019-04-13T03:41:37.514Z,99.90
2019-04-13T03:44:06.511Z,99.90
2019-04-13T03:46:35.511Z,99.90
2019-04-13T03:49:04.630Z,99.90
2019-04-13T03:51:34.003Z,99.90
2019-04-13T03:54:02.958Z,99.90
2019-04-13T03:56:31.894Z,99.90
2019-04-13T03:59:00.869Z,99.90
2019-04-13T04:01:29.885Z,99.90
2019-04-13T04:03:58.806Z,99.90
2019-04-13T04:06:27.823Z,99.90
2019-04-13T04:08:56.754Z,99.90
2019-04-13T04:11:25.992Z,99.90
2019-04-13T04:13:54.976Z,99.90
2019-04-13T04:16:24.380Z,99.90
2019-04-13T04:18:53.337Z,99.90
2019-04-13T04:21:22.270Z,99.90
2019-04-13T04:23:51.713Z,99.90
2019-04-13T04:26:21.058Z,99.90
2019-04-13T04:28:50.050Z,99.90
2019-04-13T04:31:18.920Z,99.90
2019-04-13T04:33:47.836Z,99.90
2019-04-13T04:36:23.586Z,99.90
2019-04-13T04:38:47.367Z,99.90
2019-04-13T04:41:16.233Z,99.90
2019-04-13T04:43:45.082Z,99.90
2019-04-13T04:46:14.147Z,99.90
2019-04-13T04:48:43.164Z,99.90
2019-04-13T04:51:12.147Z,99.90
2019-04-13T04:53:41.374Z,99.90
2019-04-13T04:56:10.706Z,99.90
2019-04-13T04:58:39.903Z,99.90
2019-04-13T05:01:09.064Z,99.90
2019-04-13T05:03:38.274Z,99.90
2019-04-13T05:06:07.137Z,99.90
2019-04-13T05:08:36.056Z,99.90
2019-04-13T05:11:05.190Z,99.90
2019-04-13T05:13:34.168Z,99.90
2019-04-13T05:16:03.079Z,99.90
2019-04-13T05:18:32.043Z,99.90
2019-04-13T05:21:00.947Z,99.90
2019-04-13T05:23:29.900Z,99.90
2019-04-13T05:25:59.160Z,99.90
2019-04-13T05:28:28.162Z,99.90
2019-04-13T05:30:57.079Z,99.90
2019-04-13T05:33:26.017Z,99.90
2019-04-13T05:35:54.891Z,99.90
2019-04-13T05:38:23.826Z,99.90
2019-04-13T05:40:52.719Z,99.90
2019-04-13T05:43:21.626Z,99.90
2019-04-13T05:45:50.542Z,99.90
2019-04-13T05:48:19.538Z,99.90
2019-04-13T05:50:48.467Z,99.90
2019-04-13T05:53:17.674Z,99.90
2019-04-13T05:55:46.663Z,99.90
2019-04-13T05:58:15.614Z,99.90
2019-04-13T06:00:44.606Z,99.90
2019-04-13T06:03:13.876Z,99.90
2019-04-13T06:05:42.824Z,99.90
2019-04-13T06:08:11.832Z,99.90
2019-04-13T06:10:40.782Z,99.90
2019-04-13T06:13:09.722Z,99.90
2019-04-13T06:15:38.639Z,99.90
2019-04-13T06:18:20.423Z,99.90
2019-04-13T06:20:38.601Z,99.90
2019-04-13T06:23:07.579Z,99.90
2019-04-13T06:25:36.574Z,99.90
2019-04-13T06:28:05.503Z,99.90
2019-04-13T06:31:01.864Z,99.90
2019-04-13T06:33:36.735Z,99.90
2019-04-13T06:36:08.478Z,99.90
2019-04-13T06:38:36.410Z,99.90
2019-04-13T06:41:05.482Z,99.90
2019-04-13T06:43:34.413Z,99.90
2019-04-13T06:46:03.326Z,99.90
2019-04-13T06:48:34.612Z,99.90
2019-04-13T06:51:02.862Z,99.90
2019-04-13T06:53:32.123Z,99.90
2019-04-13T06:56:03.036Z,99.90
2019-04-13T06:58:31.678Z,99.90
2019-04-13T07:01:00.662Z,99.90
2019-04-13T07:03:30.008Z,99.90
2019-04-13T07:06:00.093Z,99.90
2019-04-13T07:08:38.815Z,99.90
2019-04-13T07:11:25.502Z,99.90
2019-04-13T07:14:05.894Z,99.90
2019-04-13T07:16:43.976Z,99.90
2019-04-13T07:19:12.394Z,99.90
2019-04-13T07:21:41.363Z,99.90
2019-04-13T07:24:10.370Z,99.90
2019-04-13T07:26:40.312Z,99.90
2019-04-13T07:29:09.688Z,99.90
2019-04-13T07:31:38.686Z,99.90
2019-04-13T07:34:07.622Z,99.90
2019-04-13T07:36:41.303Z,99.90
2019-04-13T07:39:08.048Z,99.90
2019-04-13T07:41:37.145Z,99.90
2019-04-13T07:44:08.542Z,99.90
2019-04-13T07:47:16.586Z,99.90
2019-04-13T07:50:02.023Z,99.90
2019-04-13T07:52:33.725Z,99.90
2019-04-13T07:55:02.673Z,95.20
2019-04-13T07:57:31.716Z,97.80
2019-04-13T08:00:00.679Z,95.20
2019-04-13T08:02:29.580Z,91.80
2019-04-13T08:04:58.854Z,90.70
2019-04-13T08:07:27.789Z,90.00
2019-04-13T08:09:56.975Z,86.20
2019-04-13T08:12:26.051Z,82.50
2019-04-13T08:14:55.039Z,80.30
2019-04-13T08:17:32.230Z,78.70
2019-04-13T08:20:34.131Z,79.20
2019-04-13T08:23:03.715Z,78.40
2019-04-13T08:25:41.691Z,77.10
2019-04-13T08:28:15.178Z,75.00
2019-04-13T08:30:43.203Z,71.30
2019-04-13T08:33:12.271Z,71.80
2019-04-13T08:35:42.638Z,71.70
2019-04-13T08:38:13.361Z,69.50
2019-04-13T08:41:03.651Z,70.00
2019-04-13T08:43:13.607Z,68.50
2019-04-13T08:45:44.321Z,67.40
2019-04-13T08:48:13.494Z,67.80
2019-04-13T08:50:42.551Z,65.90
2019-04-13T08:53:11.604Z,67.20
2019-04-13T08:55:40.574Z,66.00
2019-04-13T08:58:09.481Z,67.50
2019-04-13T09:00:38.525Z,66.00
2019-04-13T09:03:07.438Z,64.00
2019-04-13T09:05:36.712Z,63.20
2019-04-13T09:08:05.702Z,62.30
2019-04-13T09:10:35.246Z,63.90
2019-04-13T09:13:04.709Z,63.40
2019-04-13T09:15:34.003Z,65.30
2019-04-13T09:18:16.564Z,64.50
2019-04-13T09:21:04.991Z,62.40
2019-04-13T09:23:34.436Z,58.90
2019-04-13T09:26:03.966Z,56.70
2019-04-13T09:28:32.907Z,58.70
2019-04-13T09:31:01.936Z,60.00
2019-04-13T09:33:32.439Z,58.60
2019-04-13T09:36:01.536Z,56.50
2019-04-13T09:38:41.620Z,56.80
2019-04-13T09:41:03.330Z,55.80
2019-04-13T09:44:06.227Z,58.50
2019-04-13T09:46:37.573Z,55.30
2019-04-13T09:49:07.323Z,54.70
2019-04-13T09:51:39.634Z,54.90
2019-04-13T09:54:06.948Z,53.70
2019-04-13T09:56:37.458Z,55.60
2019-04-13T09:59:10.769Z,53.80
2019-04-13T10:01:37.196Z,52.40
2019-04-13T10:04:06.183Z,53.30
2019-04-13T10:06:35.218Z,52.50
2019-04-13T10:09:08.542Z,53.10
2019-04-13T10:12:05.807Z,55.30
2019-04-13T10:14:59.767Z,54.30
2019-04-13T10:17:33.710Z,54.80
2019-04-13T10:20:02.656Z,58.60
2019-04-13T10:22:31.594Z,57.60
2019-04-13T10:25:00.542Z,57.80
2019-04-13T10:27:29.535Z,57.00
2019-04-13T10:29:58.571Z,56.70
2019-04-13T10:32:30.883Z,56.10
2019-04-13T10:34:58.056Z,56.10
2019-04-13T10:37:27.040Z,56.40
2019-04-13T10:39:56.153Z,55.60
2019-04-13T10:42:25.136Z,53.20
2019-04-13T10:45:05.389Z,50.80
2019-04-13T10:47:55.943Z,50.80
2019-04-13T10:50:38.422Z,50.50
2019-04-13T10:53:07.779Z,51.30
2019-04-13T10:55:36.854Z,52.90
2019-04-13T10:58:05.808Z,53.60
2019-04-13T11:00:35.161Z,54.00
2019-04-13T11:03:04.239Z,54.20
2019-04-13T11:05:33.531Z,53.60
2019-04-13T11:08:02.689Z,56.00
2019-04-13T11:10:32.330Z,52.60
2019-04-13T11:13:02.299Z,52.80
2019-04-13T11:15:31.641Z,52.70
2019-04-13T11:18:02.830Z,49.40
2019-04-13T11:20:31.342Z,49.60
2019-04-13T11:23:00.823Z,49.50
2019-04-13T11:25:29.963Z,50.70
2019-04-13T11:27:59.058Z,50.70
2019-04-13T11:30:28.122Z,51.10
2019-04-13T11:32:57.164Z,52.40
2019-04-13T11:35:26.246Z,53.90
2019-04-13T11:37:55.334Z,54.40
2019-04-13T11:40:24.347Z,55.00
2019-04-13T11:43:01.437Z,54.40
2019-04-13T11:45:56.117Z,55.20
2019-04-13T11:48:46.760Z,53.60
2019-04-13T11:51:31.726Z,52.60
2019-04-13T11:53:57.862Z,52.80
2019-04-13T11:56:28.866Z,51.50
2019-04-13T11:58:57.708Z,52.30
2019-04-13T12:01:45.544Z,47.90
2019-04-13T12:04:32.594Z,47.20
2019-04-13T12:07:13.694Z,46.80
2019-04-13T12:09:55.359Z,47.20
2019-04-13T12:12:41.300Z,48.80
2019-04-13T12:15:28.326Z,48.00
2019-04-13T12:18:37.266Z,47.70
2019-04-13T12:21:32.725Z,48.80
2019-04-13T12:24:03.870Z,48.90
2019-04-13T12:26:32.875Z,47.30
2019-04-13T12:29:01.831Z,47.60
2019-04-13T12:31:30.850Z,46.70
2019-04-13T12:34:03.412Z,47.10
2019-04-13T12:36:30.783Z,47.00
2019-04-13T12:38:59.772Z,48.30
2019-04-13T12:41:34.499Z,47.60
2019-04-13T12:44:03.512Z,48.10
2019-04-13T12:46:32.624Z,47.80
2019-04-13T12:49:01.554Z,48.40
2019-04-13T12:51:30.645Z,48.90
2019-04-13T12:54:04.194Z,48.10
2019-04-13T12:56:31.199Z,48.20
2019-04-13T12:59:00.105Z,47.30
2019-04-13T13:01:46.051Z,48.10
2019-04-13T13:04:15.051Z,49.30
2019-04-13T13:06:44.041Z,47.50
2019-04-13T13:09:14.283Z,47.90
2019-04-13T13:11:44.196Z,46.60
2019-04-13T13:14:13.271Z,46.20
2019-04-13T13:16:46.173Z,46.40
2019-04-13T13:19:15.887Z,47.40
2019-04-13T13:21:44.022Z,48.20
2019-04-13T13:24:13.050Z,49.20
2019-04-13T13:26:48.032Z,50.50
2019-04-13T13:29:12.670Z,50.90
2019-04-13T13:31:41.955Z,51.30
2019-04-13T13:34:10.963Z,50.30
2019-04-13T13:36:40.060Z,50.30
2019-04-13T13:39:11.575Z,49.80
2019-04-13T13:41:40.266Z,48.50
2019-04-13T13:44:09.806Z,48.50
2019-04-13T13:46:38.861Z,47.10
2019-04-13T13:49:09.656Z,44.40
2019-04-13T13:51:38.379Z,45.00
2019-04-13T13:54:07.322Z,45.20
2019-04-13T13:56:36.263Z,43.90
2019-04-13T13:59:06.134Z,44.30
2019-04-13T14:01:43.464Z,45.10
2019-04-13T14:04:13.090Z,46.00
2019-04-13T14:06:41.988Z,44.50
2019-04-13T14:09:11.335Z,44.30
2019-04-13T14:11:40.336Z,44.70
2019-04-13T14:14:09.391Z,45.30
2019-04-13T14:16:38.298Z,45.40
2019-04-13T14:19:07.363Z,45.70
2019-04-13T14:21:38.422Z,45.90
2019-04-13T14:24:07.094Z,45.90
2019-04-13T14:26:36.011Z,46.50
2019-04-13T14:29:05.098Z,46.90
2019-04-13T14:31:34.021Z,46.90
2019-04-13T14:34:02.959Z,46.70
2019-04-13T14:36:35.315Z,46.50
2019-04-13T14:39:04.466Z,47.40
2019-04-13T14:41:33.418Z,47.20
2019-04-13T14:44:02.370Z,47.60
2019-04-13T14:46:31.699Z,48.00
2019-04-13T14:49:00.767Z,48.30
2019-04-13T14:51:30.123Z,48.00
2019-04-13T14:53:59.058Z,47.60
2019-04-13T14:56:28.039Z,47.00
2019-04-13T14:58:57.067Z,46.90
2019-04-13T15:01:26.027Z,47.20
2019-04-13T15:03:55.111Z,47.00
2019-04-13T15:06:25.086Z,47.20
2019-04-13T15:08:54.259Z,47.60
2019-04-13T15:11:23.357Z,47.60
2019-04-13T15:13:53.582Z,48.60
2019-04-13T15:16:24.612Z,47.50
2019-04-13T15:19:00.441Z,47.60
2019-04-13T15:21:31.007Z,48.70
2019-04-13T15:24:00.066Z,48.00
2019-04-13T15:26:29.856Z,49.00
2019-04-13T15:29:00.340Z,47.90
2019-04-13T15:31:33.656Z,48.00
2019-04-13T15:34:03.269Z,48.20
2019-04-13T15:36:33.020Z,48.40
2019-04-13T15:39:04.860Z,48.70
2019-04-13T15:41:42.057Z,47.60
2019-04-13T15:44:07.324Z,48.30
2019-04-13T15:46:35.322Z,49.90
2019-04-13T15:49:04.701Z,50.10
2019-04-13T15:51:34.466Z,50.70
2019-04-13T15:54:05.385Z,50.60
2019-04-13T15:56:34.422Z,51.10
2019-04-13T15:59:03.591Z,51.30
2019-04-13T16:01:34.470Z,50.80
2019-04-13T16:04:05.310Z,51.20
2019-04-13T16:06:35.947Z,51.00
2019-04-13T16:09:36.918Z,51.80
2019-04-13T16:12:10.204Z,51.70
2019-04-13T16:14:39.554Z,50.80
2019-04-13T16:17:08.504Z,52.20
2019-04-13T16:19:37.439Z,51.60
2019-04-13T16:22:07.030Z,52.20
2019-04-13T16:24:37.212Z,52.30
2019-04-13T16:27:06.258Z,52.10
2019-04-13T16:30:12.974Z,52.40
2019-04-13T16:33:00.170Z,52.40
2019-04-13T16:35:40.875Z,52.60
2019-04-13T16:38:09.790Z,53.10
2019-04-13T16:40:39.386Z,51.60
2019-04-13T16:43:09.079Z,52.50
2019-04-13T16:45:44.389Z,51.90
2019-04-13T16:48:34.384Z,52.10
2019-04-13T16:51:24.535Z,52.40
2019-04-13T16:54:08.367Z,52.60
2019-04-13T16:56:43.781Z,53.40
2019-04-13T16:59:22.136Z,53.90
2019-04-13T17:01:59.874Z,55.00
2019-04-13T17:04:36.016Z,54.90
2019-04-13T17:07:05.424Z,55.70
2019-04-13T17:09:34.998Z,55.50
2019-04-13T17:12:16.926Z,55.80
2019-04-13T17:14:34.866Z,55.50
2019-04-13T17:17:03.902Z,56.50
2019-04-13T17:19:57.803Z,56.70
2019-04-13T17:22:45.614Z,57.80
2019-04-13T17:25:24.793Z,56.90
2019-04-13T17:28:11.932Z,56.70
2019-04-13T17:30:46.241Z,57.00
2019-04-13T17:33:19.474Z,57.20
2019-04-13T17:35:50.012Z,59.20
2019-04-13T17:38:19.971Z,58.90
2019-04-13T17:41:01.631Z,59.60
2019-04-13T17:43:49.431Z,60.70
2019-04-13T17:46:36.967Z,60.90
2019-04-13T17:49:29.983Z,60.10
2019-04-13T17:52:29.839Z,60.10
2019-04-13T17:55:19.038Z,60.50
2019-04-13T17:58:07.758Z,60.00
2019-04-13T18:01:08.383Z,61.80
2019-04-13T18:03:56.515Z,63.20
2019-04-13T18:06:48.806Z,63.20
2019-04-13T18:09:46.078Z,64.90
2019-04-13T18:12:40.467Z,66.20
2019-04-13T18:15:21.789Z,66.70
2019-04-13T18:17:59.546Z,66.00
2019-04-13T18:20:29.941Z,67.00
2019-04-13T18:23:00.269Z,68.70
2019-04-13T18:25:39.950Z,69.20
2019-04-13T18:28:00.559Z,71.20
2019-04-13T18:30:34.457Z,71.70
2019-04-13T18:33:01.028Z,71.40
2019-04-13T18:35:31.168Z,72.00
2019-04-13T18:38:01.677Z,75.00
2019-04-13T18:40:32.159Z,75.10
2019-04-13T18:43:09.256Z,73.40
2019-04-13T18:45:32.959Z,73.70
2019-04-13T18:48:02.265Z,75.30
2019-04-13T18:50:31.270Z,79.70
2019-04-13T18:53:00.444Z,81.90
2019-04-13T18:55:30.968Z,87.50
2019-04-13T18:58:01.222Z,89.70
2019-04-13T19:00:30.543Z,90.50
2019-04-13T19:03:00.597Z,88.90
2019-04-13T19:05:29.973Z,90.50
2019-04-13T19:07:58.903Z,92.10
2019-04-13T19:10:28.240Z,93.00
2019-04-13T19:13:04.560Z,94.90
2019-04-13T19:15:30.258Z,96.80
2019-04-13T19:17:59.199Z,98.10
2019-04-13T19:20:28.229Z,99.90
2019-04-13T19:22:57.222Z,99.90
2019-04-13T19:25:26.163Z,99.90
2019-04-13T19:27:55.218Z,99.90
2019-04-13T19:31:02.992Z,99.90
2019-04-13T19:33:32.274Z,99.90
2019-04-13T19:36:01.278Z,99.90
2019-04-13T19:46:04.586Z,99.90
2019-04-13T19:48:33.561Z,99.90
2019-04-13T19:51:02.564Z,99.90
2019-04-13T19:53:44.859Z,99.90
2019-04-13T19:56:16.020Z,99.90
2019-04-13T19:58:45.014Z,99.90
2019-04-13T20:01:16.419Z,99.90
2019-04-13T20:03:45.310Z,99.90
2019-04-13T20:06:18.909Z,99.90
2019-04-13T20:08:44.991Z,99.90
2019-04-13T20:11:14.014Z,99.90
2019-04-13T20:13:50.360Z,99.90
2019-04-13T20:16:14.765Z,99.90
2019-04-13T20:18:44.102Z,99.90
2019-04-13T20:21:12.971Z,99.90
2019-04-13T20:23:42.035Z,99.90
2019-04-13T20:26:12.147Z,99.90
2019-04-13T20:28:41.863Z,99.90
2019-04-13T20:31:11.598Z,99.90
2019-04-13T20:33:41.810Z,99.90
2019-04-13T20:36:15.019Z,99.90
2019-04-13T20:38:41.634Z,99.90
2019-04-13T20:41:19.968Z,99.90
2019-04-13T20:43:57.447Z,99.90
2019-04-13T20:46:21.376Z,99.90
2019-04-13T20:48:51.122Z,99.90
2019-04-13T20:51:21.374Z,99.90
2019-04-13T20:53:50.551Z,99.90
2019-04-13T20:56:20.711Z,99.90
2019-04-13T20:58:50.988Z,99.90
2019-04-13T21:01:21.219Z,99.90
2019-04-13T21:03:51.209Z,99.90
2019-04-13T21:06:21.566Z,99.90
2019-04-13T21:08:53.943Z,99.90
2019-04-13T21:11:21.650Z,99.90
2019-04-13T21:14:04.977Z,99.90
2019-04-13T21:16:21.488Z,99.90
2019-04-13T21:18:51.523Z,99.90
2019-04-13T21:21:21.520Z,99.90
2019-04-13T21:23:51.781Z,99.90
2019-04-13T21:26:23.544Z,99.90
2019-04-13T21:28:51.585Z,99.90
2019-04-13T21:31:21.768Z,99.90
2019-04-13T21:33:51.872Z,99.90
2019-04-13T21:36:21.736Z,99.90
2019-04-13T21:38:51.698Z,99.90
2019-04-13T21:41:21.771Z,99.90
2019-04-13T21:43:51.878Z,99.90
2019-04-13T21:46:21.993Z,99.90
2019-04-13T21:48:52.382Z,99.90
2019-04-13T21:51:46.647Z,99.90
2019-04-13T21:54:19.426Z,99.90
2019-04-13T21:56:49.452Z,99.90
2019-04-13T21:59:19.431Z,99.90
2019-04-13T22:02:05.011Z,99.90
2019-04-13T22:04:34.816Z,99.90
2019-04-13T22:07:04.741Z,99.90
2019-04-13T22:09:34.878Z,99.90
2019-04-13T22:12:04.727Z,99.90
2019-04-13T22:14:44.102Z,99.90
2019-04-13T22:17:05.366Z,99.90
2019-04-13T22:19:35.457Z,99.90
2019-04-13T22:22:05.494Z,99.90
2019-04-13T22:24:35.216Z,99.90
2019-04-13T22:27:07.629Z,99.90
2019-04-13T22:29:48.484Z,99.90
2019-04-13T22:32:36.686Z,99.90
2019-04-13T22:35:28.273Z,99.90
2019-04-13T22:37:58.076Z,99.90
2019-04-13T22:40:27.883Z,99.90
2019-04-13T22:42:58.078Z,99.90
2019-04-13T22:45:27.742Z,99.90
2019-04-13T22:48:02.691Z,99.90
2019-04-13T22:50:57.056Z,99.90
2019-04-13T22:53:48.331Z,99.90
2019-04-13T22:56:48.769Z,99.90
2019-04-13T22:59:18.866Z,99.90
2019-04-13T23:01:57.499Z,99.90
2019-04-13T23:04:27.580Z,99.90
2019-04-13T23:06:57.466Z,99.90
2019-04-13T23:09:28.019Z,99.90
2019-04-13T23:11:58.438Z,99.90
2019-04-13T23:14:28.625Z,99.90
2019-04-13T23:16:58.486Z,99.90
2019-04-13T23:19:28.542Z,99.90
2019-04-13T23:21:57.799Z,99.90
2019-04-13T23:24:29.989Z,99.90
2019-04-13T23:26:58.029Z,99.90
2019-04-13T23:29:28.201Z,99.90
2019-04-13T23:31:58.438Z,99.90
2019-04-13T23:34:28.949Z,99.90
2019-04-13T23:36:59.391Z,99.90
2019-04-13T23:39:28.485Z,99.90
2019-04-13T23:41:58.278Z,99.90
2019-04-13T23:44:27.402Z,99.90
2019-04-13T23:46:56.907Z,99.90
2019-04-13T23:49:26.177Z,99.90
2019-04-13T23:51:55.800Z,99.90
2019-04-13T23:54:26.009Z,99.90
2019-04-13T23:57:07.878Z,99.90
2019-04-13T23:59:45.642Z,99.90
